Time;durP1;ratioP1;P1;durP2;ratioP2;P2;SDS_P1;SDS_P2;PMS_P1;PMS_P2;Temp;Humidity;BMP_temperature;BMP_pressure;BME280_temperature;BME280_humidity;BME280_pressure;Samples;Min_cycle;Max_cycle;Signal;HPM_P1;HPM_P2
2023/05/07 00:01:00;;;;;;;11.18;7.57;;;;;;;;;;5012640;28;92481;-69
2023/05/07 00:03:27;;;;;;;10.38;7.68;;;;;;;;;;4996809;28;93147;-69
2023/05/07 00:05:53;;;;;;;10.38;7.82;;;;;;;;;;5000454;28;92882;-69
2023/05/07 00:08:20;;;;;;;13.98;7.75;;;;;;;;;;5013450;28;93010;-70
2023/05/07 00:10:46;;;;;;;9.30;7.07;;;;;;;;;;5013317;28;93454;-69
2023/05/07 00:13:13;;;;;;;12.60;7.43;;;;;;;;;;5014385;28;91734;-69
2023/05/07 00:15:39;;;;;;;13.77;7.88;;;;;;;;;;5014138;28;93639;-69
2023/05/07 00:18:06;;;;;;;9.73;7.30;;;;;;;;;;5013370;28;93441;-69
2023/05/07 00:20:32;;;;;;;9.65;7.22;;;;;;;;;;5011751;28;94971;-70
2023/05/07 00:23:01;;;;;;;7.97;6.95;;;;;;;;;;5016534;28;95537;-69
2023/05/07 00:25:27;;;;;;;10.27;7.15;;;;;;;;;;4993502;28;92566;-69
2023/05/07 00:27:54;;;;;;;13.38;7.22;;;;;;;;;;4992735;28;93200;-69
2023/05/07 00:30:20;;;;;;;11.77;7.60;;;;;;;;;;4993680;28;94815;-70
2023/05/07 00:32:48;;;;;;;12.82;6.90;;;;;;;;;;4993917;28;92506;-70
2023/05/07 00:35:15;;;;;;;9.68;7.38;;;;;;;;;;5003593;28;93189;-70
2023/05/07 00:37:41;;;;;;;9.25;7.47;;;;;;;;;;5012689;28;93644;-70
2023/05/07 00:40:08;;;;;;;10.35;7.10;;;;;;;;;;5012896;28;92579;-70
2023/05/07 00:42:35;;;;;;;9.85;7.03;;;;;;;;;;5021258;28;93923;-69
2023/05/07 00:45:02;;;;;;;12.95;7.05;;;;;;;;;;5031096;27;95791;-70
2023/05/07 00:47:28;;;;;;;9.48;7.18;;;;;;;;;;5013682;28;95490;-70
2023/05/07 00:49:56;;;;;;;11.48;7.78;;;;;;;;;;5013306;28;93404;-69
2023/05/07 00:52:25;;;;;;;9.18;7.10;;;;;;;;;;5013299;28;93032;-69
2023/05/07 00:54:52;;;;;;;10.10;7.65;;;;;;;;;;5014243;28;93110;-69
2023/05/07 00:57:18;;;;;;;7.55;6.80;;;;;;;;;;5016820;28;94585;-70
2023/05/07 00:59:45;;;;;;;12.50;8.05;;;;;;;;;;5015897;28;92455;-70
2023/05/07 01:02:11;;;;;;;11.40;7.80;;;;;;;;;;5017051;28;94489;-70
2023/05/07 01:04:37;;;;;;;7.57;6.78;;;;;;;;;;5016298;28;93653;-69
2023/05/07 01:07:05;;;;;;;11.52;7.53;;;;;;;;;;5019812;28;92431;-70
2023/05/07 01:09:31;;;;;;;8.77;7.18;;;;;;;;;;5014457;28;96037;-70
2023/05/07 01:11:58;;;;;;;11.85;7.75;;;;;;;;;;5016699;28;92778;-69
2023/05/07 01:14:25;;;;;;;8.88;7.20;;;;;;;;;;5016363;28;93125;-69
2023/05/07 01:16:51;;;;;;;8.57;6.85;;;;;;;;;;5016255;28;93651;-69
2023/05/07 01:19:18;;;;;;;10.70;8.07;;;;;;;;;;5016311;28;92436;-69
2023/05/07 01:21:46;;;;;;;12.10;7.97;;;;;;;;;;5016533;28;93617;-70
2023/05/07 01:24:13;;;;;;;12.00;7.93;;;;;;;;;;5016024;28;93271;-70
2023/05/07 01:26:40;;;;;;;11.40;6.93;;;;;;;;;;5016836;28;91661;-70
2023/05/07 01:29:06;;;;;;;9.35;7.57;;;;;;;;;;5019559;28;92524;-69
2023/05/07 01:31:34;;;;;;;11.98;8.10;;;;;;;;;;5000319;28;92454;-69
2023/05/07 01:34:01;;;;;;;9.40;7.35;;;;;;;;;;5014958;28;94794;-70
2023/05/07 01:36:28;;;;;;;9.27;7.28;;;;;;;;;;5005723;28;93738;-70
2023/05/07 01:38:57;;;;;;;8.27;7.00;;;;;;;;;;5002725;28;92796;-69
2023/05/07 01:41:24;;;;;;;10.48;7.13;;;;;;;;;;5015869;28;93099;-69
2023/05/07 01:43:51;;;;;;;10.02;7.28;;;;;;;;;;5018413;28;93510;-69
2023/05/07 01:46:18;;;;;;;11.80;7.60;;;;;;;;;;5016182;28;92523;-70
2023/05/07 01:48:45;;;;;;;13.70;7.72;;;;;;;;;;5011679;28;92425;-69
2023/05/07 01:51:12;;;;;;;11.75;7.80;;;;;;;;;;5019268;28;93713;-69
2023/05/07 01:53:40;;;;;;;9.25;7.53;;;;;;;;;;5016226;28;92678;-70
2023/05/07 01:56:06;;;;;;;9.85;8.20;;;;;;;;;;5015623;28;93486;-70
2023/05/07 01:58:33;;;;;;;17.13;7.40;;;;;;;;;;5013776;28;95008;-69
2023/05/07 02:00:59;;;;;;;8.90;7.68;;;;;;;;;;5014754;28;96898;-70
2023/05/07 02:03:26;;;;;;;8.38;7.57;;;;;;;;;;5015858;28;94430;-69
2023/05/07 02:05:52;;;;;;;9.73;7.75;;;;;;;;;;5015472;28;92811;-69
2023/05/07 02:08:18;;;;;;;9.82;7.28;;;;;;;;;;5015277;28;93352;-69
2023/05/07 02:10:45;;;;;;;10.27;7.60;;;;;;;;;;5015201;28;93496;-69
2023/05/07 02:13:11;;;;;;;10.70;7.97;;;;;;;;;;5018674;28;92516;-69
2023/05/07 02:15:37;;;;;;;14.95;7.50;;;;;;;;;;5015755;28;93132;-69
2023/05/07 02:18:06;;;;;;;8.43;7.53;;;;;;;;;;5015705;28;92454;-70
2023/05/07 02:20:32;;;;;;;9.93;8.55;;;;;;;;;;5015230;28;93067;-70
2023/05/07 02:22:58;;;;;;;10.27;8.07;;;;;;;;;;5022470;28;96240;-69
2023/05/07 02:25:25;;;;;;;10.13;8.25;;;;;;;;;;5014734;28;94382;-70
2023/05/07 02:27:51;;;;;;;8.73;7.93;;;;;;;;;;5021108;28;93541;-70
2023/05/07 02:30:17;;;;;;;9.68;8.70;;;;;;;;;;5026216;27;93617;-70
2023/05/07 02:32:44;;;;;;;10.00;8.98;;;;;;;;;;5033725;27;92762;-69
2023/05/07 02:35:10;;;;;;;11.27;9.10;;;;;;;;;;5014012;27;93605;-69
2023/05/07 02:37:37;;;;;;;12.80;9.80;;;;;;;;;;5012780;28;94173;-69
2023/05/07 02:40:04;;;;;;;10.20;8.27;;;;;;;;;;5016963;28;94197;-69
2023/05/07 02:42:30;;;;;;;11.55;8.82;;;;;;;;;;5005238;28;93562;-69
2023/05/07 02:44:57;;;;;;;10.52;8.63;;;;;;;;;;5031743;28;92599;-69
2023/05/07 02:47:23;;;;;;;9.63;8.55;;;;;;;;;;5025194;27;95059;-69
2023/05/07 02:49:49;;;;;;;9.23;8.10;;;;;;;;;;5034136;27;93165;-69
2023/05/07 02:52:16;;;;;;;10.05;8.32;;;;;;;;;;5017741;27;92769;-69
2023/05/07 02:54:42;;;;;;;8.68;7.78;;;;;;;;;;5021276;28;93229;-69
2023/05/07 02:57:08;;;;;;;9.93;8.40;;;;;;;;;;5025633;27;93181;-69
2023/05/07 02:59:35;;;;;;;13.93;8.48;;;;;;;;;;5022254;28;93134;-70
2023/05/07 03:02:01;;;;;;;10.93;8.52;;;;;;;;;;5030223;27;94500;-70
2023/05/07 03:04:28;;;;;;;12.25;9.23;;;;;;;;;;5034166;27;91651;-70
2023/05/07 03:06:54;;;;;;;16.80;8.20;;;;;;;;;;5029800;28;93625;-70
2023/05/07 03:09:21;;;;;;;8.98;8.15;;;;;;;;;;5014324;28;93243;-70
2023/05/07 03:11:47;;;;;;;9.45;8.45;;;;;;;;;;5018158;28;94938;-70
2023/05/07 03:14:13;;;;;;;10.43;8.43;;;;;;;;;;5022459;27;95235;-70
2023/05/07 03:16:40;;;;;;;13.90;8.75;;;;;;;;;;5016779;28;93401;-69
2023/05/07 03:19:06;;;;;;;9.73;8.73;;;;;;;;;;4993663;28;93340;-70
2023/05/07 03:21:33;;;;;;;14.25;9.65;;;;;;;;;;5001865;28;93469;-70
2023/05/07 03:24:00;;;;;;;9.50;8.40;;;;;;;;;;5011660;28;92439;-69
2023/05/07 03:26:26;;;;;;;12.02;8.88;;;;;;;;;;5022200;28;92885;-69
2023/05/07 03:28:52;;;;;;;12.18;9.10;;;;;;;;;;5015500;27;92461;-69
2023/05/07 03:31:19;;;;;;;11.23;8.93;;;;;;;;;;5016966;28;92570;-69
2023/05/07 03:33:51;;;;;;;11.98;9.60;;;;;;;;;;5033141;27;93151;-69
2023/05/07 03:36:18;;;;;;;10.02;9.02;;;;;;;;;;5031270;28;96836;-69
2023/05/07 03:38:44;;;;;;;13.23;9.80;;;;;;;;;;5017474;27;92762;-69
2023/05/07 03:41:11;;;;;;;13.40;9.10;;;;;;;;;;4999982;28;93326;-69
2023/05/07 03:43:38;;;;;;;14.73;10.02;;;;;;;;;;5025203;28;92443;-69
2023/05/07 03:46:04;;;;;;;12.07;9.23;;;;;;;;;;5031894;27;96075;-70
2023/05/07 03:48:30;;;;;;;10.98;9.00;;;;;;;;;;5013520;28;93454;-70
2023/05/07 03:50:57;;;;;;;9.43;8.38;;;;;;;;;;5020959;28;92466;-70
2023/05/07 03:53:24;;;;;;;10.15;9.15;;;;;;;;;;5011566;27;94228;-70
2023/05/07 03:55:50;;;;;;;12.70;9.30;;;;;;;;;;5020160;28;93484;-71
2023/05/07 03:58:16;;;;;;;9.52;8.57;;;;;;;;;;5020257;27;92514;-69
2023/05/07 04:00:43;;;;;;;12.18;9.02;;;;;;;;;;5011593;28;94868;-69
2023/05/07 04:03:09;;;;;;;10.50;8.80;;;;;;;;;;5014606;28;92671;-69
2023/05/07 04:05:36;;;;;;;9.52;8.55;;;;;;;;;;5024777;28;93150;-70
2023/05/07 04:08:02;;;;;;;13.77;9.20;;;;;;;;;;5018514;27;92700;-69
2023/05/07 04:10:29;;;;;;;14.88;10.05;;;;;;;;;;5025383;28;93309;-70
2023/05/07 04:12:56;;;;;;;12.07;9.80;;;;;;;;;;5028081;27;93997;-69
2023/05/07 04:15:23;;;;;;;11.73;9.43;;;;;;;;;;5012112;27;93721;-69
2023/05/07 04:17:49;;;;;;;14.02;9.75;;;;;;;;;;5015893;28;93228;-69
2023/05/07 04:20:16;;;;;;;11.95;9.68;;;;;;;;;;5020956;27;93457;-69
2023/05/07 04:22:43;;;;;;;13.82;9.80;;;;;;;;;;5031808;27;93474;-69
2023/05/07 04:25:09;;;;;;;12.75;10.43;;;;;;;;;;5032273;27;94962;-71
2023/05/07 04:27:35;;;;;;;10.43;8.90;;;;;;;;;;5017203;27;93311;-70
2023/05/07 04:30:02;;;;;;;12.40;9.23;;;;;;;;;;5020000;27;92502;-69
2023/05/07 04:32:29;;;;;;;18.83;9.15;;;;;;;;;;5029671;28;93200;-70
2023/05/07 04:34:55;;;;;;;13.52;9.73;;;;;;;;;;5035669;28;94807;-70
2023/05/07 04:37:22;;;;;;;12.30;9.75;;;;;;;;;;5015391;27;92455;-70
2023/05/07 04:39:48;;;;;;;16.02;9.43;;;;;;;;;;5011726;28;93427;-70
2023/05/07 04:42:15;;;;;;;11.23;9.20;;;;;;;;;;5024960;28;92840;-69
2023/05/07 04:44:41;;;;;;;11.48;9.75;;;;;;;;;;5035927;28;93824;-70
2023/05/07 04:47:08;;;;;;;17.27;10.32;;;;;;;;;;5024307;28;94682;-70
2023/05/07 04:49:34;;;;;;;23.42;9.82;;;;;;;;;;5027886;27;95007;-70
2023/05/07 04:52:00;;;;;;;11.60;9.88;;;;;;;;;;5014985;28;95560;-70
2023/05/07 04:54:27;;;;;;;15.70;10.50;;;;;;;;;;5014102;28;93901;-70
2023/05/07 04:56:53;;;;;;;15.35;10.57;;;;;;;;;;5021248;28;92831;-70
2023/05/07 04:59:19;;;;;;;13.48;10.82;;;;;;;;;;5035803;27;93206;-70
2023/05/07 05:01:46;;;;;;;19.15;10.57;;;;;;;;;;5014758;27;93199;-71
2023/05/07 05:04:12;;;;;;;15.05;10.50;;;;;;;;;;5018661;28;92502;-70
2023/05/07 05:06:39;;;;;;;14.07;11.68;;;;;;;;;;5016085;28;93533;-69
2023/05/07 05:09:05;;;;;;;16.20;12.10;;;;;;;;;;5015625;28;92527;-69
2023/05/07 05:11:32;;;;;;;18.45;11.45;;;;;;;;;;5015720;28;93287;-70
2023/05/07 05:13:59;;;;;;;19.83;11.85;;;;;;;;;;5013725;28;95994;-70
2023/05/07 05:16:25;;;;;;;20.63;12.25;;;;;;;;;;5015891;28;92459;-69
2023/05/07 05:18:53;;;;;;;20.23;12.55;;;;;;;;;;5015347;28;93592;-70
2023/05/07 05:21:20;;;;;;;17.38;11.73;;;;;;;;;;5015544;28;93442;-69
2023/05/07 05:23:47;;;;;;;22.42;12.32;;;;;;;;;;5015264;28;92469;-70
2023/05/07 05:26:13;;;;;;;20.88;12.10;;;;;;;;;;5017369;28;94889;-69
2023/05/07 05:28:40;;;;;;;17.55;11.73;;;;;;;;;;5015398;28;92421;-69
2023/05/07 05:31:06;;;;;;;21.83;13.27;;;;;;;;;;5015816;28;94629;-70
2023/05/07 05:33:32;;;;;;;20.15;13.07;;;;;;;;;;5014996;28;93534;-70
2023/05/07 05:35:59;;;;;;;23.60;12.82;;;;;;;;;;5014455;28;92498;-70
2023/05/07 05:38:25;;;;;;;19.73;12.20;;;;;;;;;;5012243;28;94841;-69
2023/05/07 05:40:52;;;;;;;21.00;12.10;;;;;;;;;;5017064;28;94008;-70
2023/05/07 05:43:21;;;;;;;19.40;12.05;;;;;;;;;;5014961;28;92865;-70
2023/05/07 05:45:47;;;;;;;16.65;12.40;;;;;;;;;;5017965;28;94148;-70
2023/05/07 05:48:14;;;;;;;21.90;12.25;;;;;;;;;;5018241;28;94420;-70
2023/05/07 05:50:41;;;;;;;23.15;11.57;;;;;;;;;;5016315;28;92532;-70
2023/05/07 05:53:08;;;;;;;23.23;12.63;;;;;;;;;;5029397;27;93045;-70
2023/05/07 05:55:34;;;;;;;23.58;12.57;;;;;;;;;;5023081;28;91794;-69
2023/05/07 05:58:01;;;;;;;20.60;13.73;;;;;;;;;;5033499;27;92694;-69
2023/05/07 06:00:27;;;;;;;21.08;12.68;;;;;;;;;;5028233;27;93731;-70
2023/05/07 06:02:53;;;;;;;21.95;13.50;;;;;;;;;;5017717;28;94911;-70
2023/05/07 06:05:20;;;;;;;19.73;12.68;;;;;;;;;;5017274;28;96269;-70
2023/05/07 06:07:46;;;;;;;20.05;12.77;;;;;;;;;;5025408;27;94674;-69
2023/05/07 06:10:13;;;;;;;20.42;12.55;;;;;;;;;;5026273;28;92713;-69
2023/05/07 06:12:39;;;;;;;19.42;12.93;;;;;;;;;;5033835;27;93381;-70
2023/05/07 06:15:06;;;;;;;19.30;13.93;;;;;;;;;;5029199;27;92450;-70
2023/05/07 06:17:32;;;;;;;21.75;13.25;;;;;;;;;;5021130;28;93166;-70
2023/05/07 06:19:58;;;;;;;24.23;14.35;;;;;;;;;;5032798;27;92696;-69
2023/05/07 06:22:25;;;;;;;23.15;14.18;;;;;;;;;;5026276;28;92444;-69
2023/05/07 06:24:51;;;;;;;18.27;13.60;;;;;;;;;;5033398;27;93037;-70
2023/05/07 06:27:17;;;;;;;23.70;14.52;;;;;;;;;;5015022;28;98240;-69
2023/05/07 06:29:43;;;;;;;18.10;13.82;;;;;;;;;;5014317;28;94109;-69
2023/05/07 06:32:10;;;;;;;33.03;14.55;;;;;;;;;;5010439;28;93182;-70
2023/05/07 06:34:37;;;;;;;18.85;14.93;;;;;;;;;;5027337;28;92478;-71
2023/05/07 06:37:03;;;;;;;24.95;14.73;;;;;;;;;;5016596;27;94643;-72
2023/05/07 06:39:30;;;;;;;19.17;14.63;;;;;;;;;;5023722;28;93401;-69
2023/05/07 06:41:56;;;;;;;22.42;14.98;;;;;;;;;;5017835;27;93298;-66
2023/05/07 06:44:23;;;;;;;20.83;15.10;;;;;;;;;;5028807;28;93812;-68
2023/05/07 06:46:49;;;;;;;21.35;15.82;;;;;;;;;;5016723;28;93275;-70
2023/05/07 06:49:15;;;;;;;21.10;16.55;;;;;;;;;;5017462;28;92466;-70
2023/05/07 06:51:42;;;;;;;23.08;16.30;;;;;;;;;;5019734;28;94814;-69
2023/05/07 06:54:08;;;;;;;23.92;16.08;;;;;;;;;;5024105;28;92485;-71
2023/05/07 06:56:34;;;;;;;20.67;15.95;;;;;;;;;;5018476;28;92978;-71
2023/05/07 06:59:01;;;;;;;28.15;17.55;;;;;;;;;;5018381;28;94457;-71
2023/05/07 07:01:28;;;;;;;25.30;15.63;;;;;;;;;;5022869;28;92455;-70
2023/05/07 07:03:54;;;;;;;22.98;16.80;;;;;;;;;;5043440;27;94347;-69
2023/05/07 07:06:20;;;;;;;28.35;16.63;;;;;;;;;;5037187;27;92497;-70
2023/05/07 07:08:47;;;;;;;27.48;18.20;;;;;;;;;;5038662;27;91600;-71
2023/05/07 07:11:13;;;;;;;27.17;17.60;;;;;;;;;;5028893;27;92447;-70
2023/05/07 07:13:40;;;;;;;25.65;17.50;;;;;;;;;;5021884;28;94720;-72
2023/05/07 07:16:06;;;;;;;21.13;16.98;;;;;;;;;;5016581;28;95016;-71
2023/05/07 07:18:32;;;;;;;23.05;17.08;;;;;;;;;;5014673;28;95065;-70
2023/05/07 07:20:59;;;;;;;24.25;17.30;;;;;;;;;;5023108;28;92680;-69
2023/05/07 07:23:25;;;;;;;23.55;18.05;;;;;;;;;;5035166;28;93161;-69
2023/05/07 07:25:51;;;;;;;25.00;17.30;;;;;;;;;;5033990;28;93250;-69
2023/05/07 07:28:20;;;;;;;22.40;17.60;;;;;;;;;;5026982;28;92799;-69
2023/05/07 07:30:46;;;;;;;20.27;16.50;;;;;;;;;;5035723;27;93271;-70
2023/05/07 07:33:13;;;;;;;25.95;17.23;;;;;;;;;;5043470;27;91510;-71
2023/05/07 07:35:39;;;;;;;24.50;17.63;;;;;;;;;;5023641;28;92383;-70
2023/05/07 07:38:05;;;;;;;23.00;17.58;;;;;;;;;;5014845;28;93520;-70
2023/05/07 07:40:34;;;;;;;23.92;17.52;;;;;;;;;;5013960;28;94868;-70
2023/05/07 07:43:01;;;;;;;19.38;16.15;;;;;;;;;;5024595;28;99464;-69
2023/05/07 07:45:27;;;;;;;20.75;16.23;;;;;;;;;;5029852;27;93293;-68
2023/05/07 07:47:53;;;;;;;21.33;16.13;;;;;;;;;;5014927;28;92456;-70
2023/05/07 07:50:20;;;;;;;25.23;17.20;;;;;;;;;;5021225;28;93145;-69
2023/05/07 07:53:06;;;;;;;23.10;16.20;;;;;;;;;;5020416;28;93222;-69
2023/05/07 07:55:37;;;;;;;26.05;16.52;;;;;;;;;;5013611;28;92383;-69
2023/05/07 07:58:03;;;;;;;19.85;15.98;;;;;;;;;;5021222;28;94268;-69
2023/05/07 08:00:30;;;;;;;19.45;15.18;;;;;;;;;;5033050;27;92648;-70
2023/05/07 08:02:56;;;;;;;21.90;14.98;;;;;;;;;;5021767;27;93197;-70
2023/05/07 08:05:23;;;;;;;20.98;15.02;;;;;;;;;;5017325;28;95841;-70
2023/05/07 08:07:53;;;;;;;21.98;15.07;;;;;;;;;;5013075;28;92748;-70
2023/05/07 08:10:22;;;;;;;21.55;15.50;;;;;;;;;;5013447;28;95253;-69
2023/05/07 08:12:49;;;;;;;18.90;14.65;;;;;;;;;;5013155;28;94454;-70
2023/05/07 08:15:16;;;;;;;21.02;15.13;;;;;;;;;;5027976;27;92545;-70
2023/05/07 08:17:42;;;;;;;19.30;15.30;;;;;;;;;;5016461;27;93552;-69
2023/05/07 08:20:09;;;;;;;23.05;15.02;;;;;;;;;;5019023;28;93763;-70
2023/05/07 08:22:36;;;;;;;24.75;14.95;;;;;;;;;;5017663;28;94197;-70
2023/05/07 08:25:03;;;;;;;23.58;15.73;;;;;;;;;;5011345;28;93629;-70
2023/05/07 08:27:29;;;;;;;22.67;15.10;;;;;;;;;;5014497;28;92491;-68
2023/05/07 08:29:56;;;;;;;20.27;16.05;;;;;;;;;;5018228;28;95073;-69
2023/05/07 08:32:22;;;;;;;29.77;16.98;;;;;;;;;;5016475;27;93426;-69
2023/05/07 08:34:48;;;;;;;24.45;16.50;;;;;;;;;;5013841;28;92506;-69
2023/05/07 08:37:15;;;;;;;17.80;15.27;;;;;;;;;;5012515;28;94366;-70
2023/05/07 08:39:41;;;;;;;24.00;17.48;;;;;;;;;;5004769;28;93737;-71
2023/05/07 08:42:09;;;;;;;28.50;17.13;;;;;;;;;;5015465;28;92431;-68
2023/05/07 08:44:38;;;;;;;27.83;16.70;;;;;;;;;;5013076;28;92502;-67
2023/05/07 08:47:06;;;;;;;29.75;17.77;;;;;;;;;;5013621;28;91653;-68
2023/05/07 08:49:33;;;;;;;24.67;17.25;;;;;;;;;;5011495;28;92769;-69
2023/05/07 08:51:59;;;;;;;24.75;17.23;;;;;;;;;;5007656;28;93613;-69
2023/05/07 08:54:27;;;;;;;24.75;17.25;;;;;;;;;;5017004;27;95078;-69
2023/05/07 08:56:53;;;;;;;28.63;15.55;;;;;;;;;;5012547;28;96545;-71
2023/05/07 08:59:20;;;;;;;21.00;15.23;;;;;;;;;;5012283;28;93076;-71
2023/05/07 09:01:46;;;;;;;20.80;14.35;;;;;;;;;;5015372;28;92467;-69
2023/05/07 09:04:13;;;;;;;19.92;13.80;;;;;;;;;;5015110;28;93269;-70
2023/05/07 09:06:41;;;;;;;20.58;15.10;;;;;;;;;;5030927;27;92526;-70
2023/05/07 09:09:08;;;;;;;28.25;16.88;;;;;;;;;;5032396;27;93433;-70
2023/05/07 09:11:34;;;;;;;24.10;17.98;;;;;;;;;;5019025;27;94079;-69
2023/05/07 09:14:01;;;;;;;25.58;17.90;;;;;;;;;;5012067;28;92510;-70
2023/05/07 09:16:29;;;;;;;29.17;19.65;;;;;;;;;;5011006;28;93838;-68
2023/05/07 09:18:57;;;;;;;33.85;19.23;;;;;;;;;;5014074;28;96050;-67
2023/05/07 09:21:23;;;;;;;32.67;20.90;;;;;;;;;;5015423;28;92526;-68
2023/05/07 09:23:53;;;;;;;31.70;18.98;;;;;;;;;;5016987;28;94456;-68
2023/05/07 09:26:23;;;;;;;30.42;20.52;;;;;;;;;;5016280;28;92498;-69
2023/05/07 09:28:50;;;;;;;27.60;19.30;;;;;;;;;;5010545;28;93362;-68
2023/05/07 09:31:16;;;;;;;26.48;20.38;;;;;;;;;;5015327;28;93174;-67
2023/05/07 09:33:46;;;;;;;25.83;20.30;;;;;;;;;;5015349;28;92479;-70
2023/05/07 09:36:12;;;;;;;27.17;20.77;;;;;;;;;;5013764;28;93043;-65
2023/05/07 09:38:39;;;;;;;28.58;20.67;;;;;;;;;;5014772;28;93292;-67
2023/05/07 09:41:09;;;;;;;27.20;21.25;;;;;;;;;;5013262;28;92743;-67
2023/05/07 09:43:36;;;;;;;31.30;21.30;;;;;;;;;;5013740;28;94804;-68
2023/05/07 09:46:03;;;;;;;32.70;21.65;;;;;;;;;;5020142;28;94411;-69
2023/05/07 09:48:29;;;;;;;30.27;20.55;;;;;;;;;;5015227;28;93306;-71
2023/05/07 09:50:58;;;;;;;27.58;20.38;;;;;;;;;;5013932;28;93436;-70
2023/05/07 09:53:25;;;;;;;27.20;20.25;;;;;;;;;;5035115;28;92412;-69
2023/05/07 09:55:51;;;;;;;29.83;20.42;;;;;;;;;;5034919;27;93178;-70
2023/05/07 09:58:18;;;;;;;25.90;20.30;;;;;;;;;;5035217;28;94412;-67
2023/05/07 10:00:45;;;;;;;24.80;19.85;;;;;;;;;;5032901;27;91904;-68
2023/05/07 10:03:12;;;;;;;29.88;21.15;;;;;;;;;;5014677;28;93301;-69
2023/05/07 10:05:39;;;;;;;24.15;19.15;;;;;;;;;;5014398;28;93495;-70
2023/05/07 10:08:06;;;;;;;26.75;20.05;;;;;;;;;;5024463;28;94793;-70
2023/05/07 10:10:33;;;;;;;26.38;20.10;;;;;;;;;;5030346;27;93464;-70
2023/05/07 10:13:01;;;;;;;24.67;19.50;;;;;;;;;;5035069;27;92846;-70
2023/05/07 10:15:28;;;;;;;32.78;20.67;;;;;;;;;;5034506;27;93219;-69
2023/05/07 10:17:55;;;;;;;28.88;20.50;;;;;;;;;;5020669;27;93415;-71
2023/05/07 10:20:22;;;;;;;33.95;19.35;;;;;;;;;;5029105;28;92479;-70
2023/05/07 10:22:48;;;;;;;29.30;18.83;;;;;;;;;;5020231;27;92896;-70
2023/05/07 10:25:20;;;;;;;27.27;19.67;;;;;;;;;;5034933;27;92750;-73
2023/05/07 10:27:48;;;;;;;25.17;19.23;;;;;;;;;;5034013;27;92425;-70
2023/05/07 10:30:14;;;;;;;32.28;20.95;;;;;;;;;;5036063;27;94173;-70
2023/05/07 10:32:46;;;;;;;24.20;18.52;;;;;;;;;;5031184;27;94857;-70
2023/05/07 10:35:18;;;;;;;25.42;18.70;;;;;;;;;;5031342;27;95915;-70
2023/05/07 10:37:45;;;;;;;25.10;17.27;;;;;;;;;;5014345;28;93372;-69
2023/05/07 10:40:12;;;;;;;25.88;19.48;;;;;;;;;;5024473;28;93670;-69
2023/05/07 10:42:38;;;;;;;30.40;19.75;;;;;;;;;;5034626;27;93189;-70
2023/05/07 10:45:15;;;;;;;24.77;19.05;;;;;;;;;;5027945;27;93788;-70
2023/05/07 10:48:00;;;;;;;24.58;17.65;;;;;;;;;;5014084;28;92861;-70
2023/05/07 10:50:26;;;;;;;24.55;18.02;;;;;;;;;;5017876;28;94605;-69
2023/05/07 10:53:11;;;;;;;23.58;18.95;;;;;;;;;;5015511;28;93056;-69
2023/05/07 10:55:37;;;;;;;24.23;16.80;;;;;;;;;;5016396;28;94196;-69
2023/05/07 10:58:21;;;;;;;24.35;16.73;;;;;;;;;;5032084;27;96042;-69
2023/05/07 11:00:58;;;;;;;26.08;16.20;;;;;;;;;;5033853;27;92498;-70
2023/05/07 11:03:25;;;;;;;22.88;16.50;;;;;;;;;;4998858;27;95518;-70
2023/05/07 11:06:06;;;;;;;22.52;16.70;;;;;;;;;;5007458;28;93448;-71
2023/05/07 11:08:53;;;;;;;21.38;16.38;;;;;;;;;;5020808;27;92629;-71
2023/05/07 11:11:20;;;;;;;28.42;17.20;;;;;;;;;;5016852;28;94959;-69
2023/05/07 11:13:47;;;;;;;24.80;15.80;;;;;;;;;;5015393;28;96147;-68
2023/05/07 11:16:20;;;;;;;21.75;16.10;;;;;;;;;;5014787;28;93316;-68
2023/05/07 11:18:51;;;;;;;18.25;15.45;;;;;;;;;;5013001;28;93259;-67
2023/05/07 11:21:17;;;;;;;;;;;;;;;;;;5010716;28;92870;-70
2023/05/07 11:23:47;;;;;;;19.98;15.77;;;;;;;;;;5013584;28;124025;-68
2023/05/07 11:26:13;;;;;;;18.87;14.50;;;;;;;;;;5012847;28;93328;-69
2023/05/07 11:28:40;;;;;;;17.55;14.57;;;;;;;;;;5013458;28;92568;-68
2023/05/07 11:31:07;;;;;;;23.75;14.50;;;;;;;;;;5013599;28;93171;-68
2023/05/07 11:33:34;;;;;;;20.88;14.98;;;;;;;;;;5005919;28;94471;-68
2023/05/07 11:36:01;;;;;;;17.30;15.45;;;;;;;;;;5016458;28;92508;-68
2023/05/07 11:38:28;;;;;;;20.77;15.55;;;;;;;;;;5013762;27;93647;-68
2023/05/07 11:40:56;;;;;;;23.77;17.25;;;;;;;;;;5032665;27;92122;-68
2023/05/07 11:43:22;;;;;;;19.48;15.43;;;;;;;;;;5027629;27;92404;-68
2023/05/07 11:45:49;;;;;;;22.08;15.48;;;;;;;;;;5007592;28;93386;-69
2023/05/07 11:48:16;;;;;;;22.33;15.38;;;;;;;;;;5002996;28;96955;-68
2023/05/07 11:50:55;;;;;;;28.92;14.38;;;;;;;;;;5019607;28;95349;-67
2023/05/07 11:53:24;;;;;;;20.02;14.85;;;;;;;;;;5016261;28;93375;-67
2023/05/07 11:55:54;;;;;;;20.63;14.47;;;;;;;;;;5020016;27;92663;-67
2023/05/07 11:58:21;;;;;;;;;;;;;;;;;;5036108;27;92871;-67
2023/05/07 12:00:53;;;;;;;25.20;14.85;;;;;;;;;;5030456;28;120565;-67
2023/05/07 12:03:20;;;;;;;20.88;13.93;;;;;;;;;;5026469;27;93190;-68
2023/05/07 12:05:47;;;;;;;19.52;13.30;;;;;;;;;;5013253;28;92860;-67
2023/05/07 12:08:17;;;;;;;23.58;11.45;;;;;;;;;;4996099;28;93150;-67
2023/05/07 12:10:44;;;;;;;18.48;8.57;;;;;;;;;;5012642;28;92531;-68
2023/05/07 12:13:23;;;;;;;11.10;5.85;;;;;;;;;;5003234;28;95916;-67
2023/05/07 12:15:53;;;;;;;10.47;6.10;;;;;;;;;;4993925;28;92639;-69
2023/05/07 12:18:20;;;;;;;11.13;7.00;;;;;;;;;;5013777;27;93167;-67
2023/05/07 12:20:46;;;;;;;11.60;7.18;;;;;;;;;;5021067;28;94366;-68
2023/05/07 12:23:13;;;;;;;10.40;6.55;;;;;;;;;;5029905;27;94271;-67
2023/05/07 12:25:40;;;;;;;13.70;8.20;;;;;;;;;;5030362;27;93567;-67
2023/05/07 12:28:07;;;;;;;14.75;8.15;;;;;;;;;;5033671;27;92505;-67
2023/05/07 12:30:37;;;;;;;15.48;7.40;;;;;;;;;;5013041;27;93429;-67
2023/05/07 12:33:03;;;;;;;16.88;7.18;;;;;;;;;;5007106;27;93589;-68
2023/05/07 12:35:36;;;;;;;10.15;6.55;;;;;;;;;;4996180;28;92541;-67
2023/05/07 12:38:07;;;;;;;9.35;5.50;;;;;;;;;;5005594;28;95008;-67
2023/05/07 12:40:37;;;;;;;8.48;4.13;;;;;;;;;;5007051;28;93724;-67
2023/05/07 12:43:04;;;;;;;8.00;4.88;;;;;;;;;;5017621;27;93102;-67
2023/05/07 12:45:30;;;;;;;8.13;5.57;;;;;;;;;;5007095;27;93742;-67
2023/05/07 12:48:00;;;;;;;13.85;6.10;;;;;;;;;;5008001;28;93258;-67
2023/05/07 12:50:30;;;;;;;11.30;5.45;;;;;;;;;;5025491;27;93090;-68
2023/05/07 12:52:56;;;;;;;11.30;6.40;;;;;;;;;;5014888;28;93556;-67
2023/05/07 12:55:23;;;;;;;10.70;6.65;;;;;;;;;;5018949;27;92159;-66
2023/05/07 12:57:52;;;;;;;12.68;5.82;;;;;;;;;;5018634;27;92772;-67
2023/05/07 13:00:35;;;;;;;10.73;5.45;;;;;;;;;;5022045;27;94554;-67
2023/05/07 13:03:01;;;;;;;8.63;5.78;;;;;;;;;;5013248;28;95017;-67
2023/05/07 13:05:28;;;;;;;8.30;5.60;;;;;;;;;;5004931;28;94433;-67
2023/05/07 13:07:55;;;;;;;12.82;6.75;;;;;;;;;;5016691;28;92448;-67
2023/05/07 13:10:22;;;;;;;11.32;6.63;;;;;;;;;;5016294;28;94673;-67
2023/05/07 13:12:49;;;;;;;16.48;6.95;;;;;;;;;;5015748;28;93403;-67
2023/05/07 13:15:15;;;;;;;10.77;7.20;;;;;;;;;;5003385;28;92569;-67
2023/05/07 13:17:42;;;;;;;10.27;6.47;;;;;;;;;;5011040;28;93363;-67
2023/05/07 13:20:12;;;;;;;12.73;6.78;;;;;;;;;;5016522;28;92485;-67
2023/05/07 13:22:39;;;;;;;12.77;7.15;;;;;;;;;;5024180;28;92631;-68
2023/05/07 13:25:06;;;;;;;10.65;7.30;;;;;;;;;;5033608;27;94139;-67
2023/05/07 13:27:35;;;;;;;11.02;6.20;;;;;;;;;;5014268;28;95169;-68
2023/05/07 13:30:01;;;;;;;12.27;7.15;;;;;;;;;;5029564;27;95837;-68
2023/05/07 13:32:28;;;;;;;12.40;7.10;;;;;;;;;;5034860;28;93277;-68
2023/05/07 13:34:54;;;;;;;14.75;8.70;;;;;;;;;;5033696;27;92572;-68
2023/05/07 13:37:20;;;;;;;12.80;10.50;;;;;;;;;;5036012;27;93112;-69
2023/05/07 13:39:47;;;;;;;16.30;11.13;;;;;;;;;;5035048;27;94504;-69
2023/05/07 13:42:13;;;;;;;22.95;11.85;;;;;;;;;;5011692;27;92589;-69
2023/05/07 13:44:40;;;;;;;15.93;12.00;;;;;;;;;;4996143;28;93240;-68
2023/05/07 13:47:06;;;;;;;16.70;12.77;;;;;;;;;;5011290;28;92430;-67
2023/05/07 13:49:32;;;;;;;18.33;12.75;;;;;;;;;;5009882;28;93098;-68
2023/05/07 13:51:59;;;;;;;19.05;15.15;;;;;;;;;;5010509;28;96373;-67
2023/05/07 13:54:25;;;;;;;22.45;13.93;;;;;;;;;;5011326;28;92853;-67
2023/05/07 13:56:51;;;;;;;16.85;13.15;;;;;;;;;;4998874;28;94183;-69
2023/05/07 13:59:17;;;;;;;17.38;12.93;;;;;;;;;;5015116;28;94528;-67
2023/05/07 14:01:44;;;;;;;18.40;13.88;;;;;;;;;;5013556;28;92468;-68
2023/05/07 14:04:10;;;;;;;21.30;13.48;;;;;;;;;;4994092;28;93361;-67
2023/05/07 14:06:37;;;;;;;24.92;14.38;;;;;;;;;;5006448;28;93455;-67
2023/05/07 14:09:03;;;;;;;21.17;14.82;;;;;;;;;;5002186;28;91674;-67
2023/05/07 14:11:30;;;;;;;19.85;15.10;;;;;;;;;;5014357;28;93067;-67
2023/05/07 14:13:59;;;;;;;22.48;14.88;;;;;;;;;;5014601;28;93808;-66
2023/05/07 14:16:25;;;;;;;20.30;15.15;;;;;;;;;;5008426;28;95573;-67
2023/05/07 14:18:51;;;;;;;22.55;15.23;;;;;;;;;;5012638;28;93408;-67
2023/05/07 14:21:18;;;;;;;20.02;15.52;;;;;;;;;;4998629;28;92474;-68
2023/05/07 14:23:44;;;;;;;23.38;14.88;;;;;;;;;;5004404;28;93653;-68
2023/05/07 14:26:10;;;;;;;17.95;13.82;;;;;;;;;;5012896;28;93454;-68